sensor_id;sensor_type;location;lat;lon;timestamp;P1;durP1;ratioP1;P2;durP2;ratioP2
22219;SDS011;11279;48.364;10.904;2023-04-03T00:00:42;7.40;;;4.70;;
22219;SDS011;11279;48.364;10.904;2023-04-03T00:01:42;7.33;;;5.23;;
22219;SDS011;11279;48.364;10.904;2023-04-03T00:02:43;8.67;;;5.17;;
22219;SDS011;11279;48.364;10.904;2023-04-03T00:03:43;7.10;;;4.67;;
22219;SDS011;11279;48.364;10.904;2023-04-03T00:04:44;8.10;;;4.97;;
22219;SDS011;11279;48.364;10.904;2023-04-03T00:05:45;7.83;;;4.40;;
22219;SDS011;11279;48.364;10.904;2023-04-03T00:06:45;7.68;;;5.05;;
22219;SDS011;11279;48.364;10.904;2023-04-03T00:07:46;6.93;;;4.50;;
22219;SDS011;11279;48.364;10.904;2023-04-03T00:08:46;9.83;;;5.23;;
22219;SDS011;11279;48.364;10.904;2023-04-03T00:09:47;7.10;;;4.37;;
22219;SDS011;11279;48.364;10.904;2023-04-03T00:10:48;7.50;;;5.10;;
22219;SDS011;11279;48.364;10.904;2023-04-03T00:11:48;7.57;;;4.30;;
22219;SDS011;11279;48.364;10.904;2023-04-03T00:12:49;7.13;;;4.60;;
22219;SDS011;11279;48.364;10.904;2023-04-03T00:13:49;6.87;;;4.60;;
22219;SDS011;11279;48.364;10.904;2023-04-03T00:14:50;6.93;;;4.63;;
22219;SDS011;11279;48.364;10.904;2023-04-03T00:15:50;7.43;;;4.70;;
22219;SDS011;11279;48.364;10.904;2023-04-03T00:16:51;7.40;;;4.95;;
22219;SDS011;11279;48.364;10.904;2023-04-03T00:17:51;8.70;;;4.70;;
22219;SDS011;11279;48.364;10.904;2023-04-03T00:18:52;10.63;;;4.93;;
22219;SDS011;11279;48.364;10.904;2023-04-03T00:19:52;7.37;;;4.67;;
22219;SDS011;11279;48.364;10.904;2023-04-03T00:20:53;6.63;;;4.10;;
22219;SDS011;11279;48.364;10.904;2023-04-03T00:21:53;7.00;;;4.53;;
22219;SDS011;11279;48.364;10.904;2023-04-03T00:22:53;7.23;;;4.40;;
22219;SDS011;11279;48.364;10.904;2023-04-03T00:23:54;6.57;;;3.83;;
22219;SDS011;11279;48.364;10.904;2023-04-03T00:24:55;7.27;;;4.13;;
22219;SDS011;11279;48.364;10.904;2023-04-03T00:26:16;6.53;;;4.15;;
22219;SDS011;11279;48.364;10.904;2023-04-03T00:27:16;7.77;;;4.70;;
22219;SDS011;11279;48.364;10.904;2023-04-03T00:28:16;5.90;;;4.10;;
22219;SDS011;11279;48.364;10.904;2023-04-03T00:29:17;6.53;;;4.00;;
22219;SDS011;11279;48.364;10.904;2023-04-03T00:30:18;7.20;;;4.53;;
22219;SDS011;11279;48.364;10.904;2023-04-03T00:31:20;7.10;;;4.15;;
22219;SDS011;11279;48.364;10.904;2023-04-03T00:32:20;5.80;;;3.87;;
22219;SDS011;11279;48.364;10.904;2023-04-03T00:33:20;6.23;;;4.50;;
22219;SDS011;11279;48.364;10.904;2023-04-03T00:34:24;6.20;;;3.97;;
22219;SDS011;11279;48.364;10.904;2023-04-03T00:35:25;6.80;;;3.97;;
22219;SDS011;11279;48.364;10.904;2023-04-03T00:36:25;6.37;;;4.00;;
22219;SDS011;11279;48.364;10.904;2023-04-03T00:37:26;5.30;;;3.97;;
22219;SDS011;11279;48.364;10.904;2023-04-03T00:38:26;6.50;;;3.80;;
22219;SDS011;11279;48.364;10.904;2023-04-03T00:39:27;7.63;;;4.00;;
22219;SDS011;11279;48.364;10.904;2023-04-03T00:40:27;5.70;;;3.67;;
22219;SDS011;11279;48.364;10.904;2023-04-03T00:41:33;6.65;;;3.90;;
22219;SDS011;11279;48.364;10.904;2023-04-03T00:42:39;8.60;;;3.80;;
22219;SDS011;11279;48.364;10.904;2023-04-03T00:43:40;5.35;;;3.63;;
22219;SDS011;11279;48.364;10.904;2023-04-03T00:45:42;7.37;;;3.90;;
22219;SDS011;11279;48.364;10.904;2023-04-03T00:46:44;6.28;;;3.72;;
22219;SDS011;11279;48.364;10.904;2023-04-03T00:47:44;5.83;;;3.77;;
22219;SDS011;11279;48.364;10.904;2023-04-03T00:48:46;5.05;;;3.28;;
22219;SDS011;11279;48.364;10.904;2023-04-03T00:49:47;7.25;;;3.78;;
22219;SDS011;11279;48.364;10.904;2023-04-03T00:50:49;4.80;;;3.25;;
22219;SDS011;11279;48.364;10.904;2023-04-03T00:51:50;6.85;;;3.55;;
22219;SDS011;11279;48.364;10.904;2023-04-03T00:52:51;6.43;;;3.80;;
22219;SDS011;11279;48.364;10.904;2023-04-03T00:53:54;6.80;;;3.60;;
22219;SDS011;11279;48.364;10.904;2023-04-03T00:55:00;6.22;;;3.50;;
22219;SDS011;11279;48.364;10.904;2023-04-03T00:56:04;4.97;;;3.15;;
22219;SDS011;11279;48.364;10.904;2023-04-03T00:57:06;5.97;;;3.72;;
22219;SDS011;11279;48.364;10.904;2023-04-03T00:58:07;6.93;;;3.70;;
22219;SDS011;11279;48.364;10.904;2023-04-03T00:59:13;6.32;;;3.38;;
22219;SDS011;11279;48.364;10.904;2023-04-03T01:00:16;6.10;;;3.45;;
22219;SDS011;11279;48.364;10.904;2023-04-03T01:01:20;4.72;;;3.10;;
22219;SDS011;11279;48.364;10.904;2023-04-03T01:02:23;6.25;;;3.40;;
22219;SDS011;11279;48.364;10.904;2023-04-03T01:03:24;6.30;;;3.73;;
22219;SDS011;11279;48.364;10.904;2023-04-03T01:04:31;5.97;;;3.40;;
22219;SDS011;11279;48.364;10.904;2023-04-03T01:05:33;5.70;;;3.30;;
22219;SDS011;11279;48.364;10.904;2023-04-03T01:06:35;4.70;;;3.43;;
22219;SDS011;11279;48.364;10.904;2023-04-03T01:07:36;7.82;;;3.67;;
22219;SDS011;11279;48.364;10.904;2023-04-03T01:08:37;5.18;;;3.20;;
22219;SDS011;11279;48.364;10.904;2023-04-03T01:09:38;3.90;;;2.95;;
22219;SDS011;11279;48.364;10.904;2023-04-03T01:10:39;4.43;;;3.15;;
22219;SDS011;11279;48.364;10.904;2023-04-03T01:11:40;5.27;;;3.27;;
22219;SDS011;11279;48.364;10.904;2023-04-03T01:12:41;5.27;;;3.33;;
22219;SDS011;11279;48.364;10.904;2023-04-03T01:13:43;5.07;;;2.78;;
22219;SDS011;11279;48.364;10.904;2023-04-03T01:14:44;5.60;;;3.40;;
22219;SDS011;11279;48.364;10.904;2023-04-03T01:15:46;4.18;;;2.97;;
22219;SDS011;11279;48.364;10.904;2023-04-03T01:16:55;6.57;;;3.20;;
22219;SDS011;11279;48.364;10.904;2023-04-03T01:17:56;4.05;;;2.72;;
22219;SDS011;11279;48.364;10.904;2023-04-03T01:18:58;4.28;;;3.03;;
22219;SDS011;11279;48.364;10.904;2023-04-03T01:21:53;4.80;;;3.20;;
22219;SDS011;11279;48.364;10.904;2023-04-03T01:24:19;9.50;;;3.67;;
22219;SDS011;11279;48.364;10.904;2023-04-03T01:25:28;5.25;;;3.00;;
22219;SDS011;11279;48.364;10.904;2023-04-03T01:26:28;5.67;;;3.27;;
22219;SDS011;11279;48.364;10.904;2023-04-03T01:27:29;4.53;;;3.00;;
22219;SDS011;11279;48.364;10.904;2023-04-03T01:28:31;5.53;;;3.47;;
22219;SDS011;11279;48.364;10.904;2023-04-03T01:29:33;5.22;;;2.95;;
22219;SDS011;11279;48.364;10.904;2023-04-03T01:30:35;5.53;;;3.20;;
22219;SDS011;11279;48.364;10.904;2023-04-03T01:32:40;3.60;;;2.80;;
22219;SDS011;11279;48.364;10.904;2023-04-03T01:33:40;5.10;;;3.10;;
22219;SDS011;11279;48.364;10.904;2023-04-03T01:34:41;6.50;;;3.22;;
22219;SDS011;11279;48.364;10.904;2023-04-03T01:35:42;4.53;;;3.00;;
22219;SDS011;11279;48.364;10.904;2023-04-03T01:36:42;4.83;;;3.00;;
22219;SDS011;11279;48.364;10.904;2023-04-03T01:37:43;4.10;;;2.77;;
22219;SDS011;11279;48.364;10.904;2023-04-03T01:38:43;4.47;;;3.03;;
22219;SDS011;11279;48.364;10.904;2023-04-03T01:39:44;4.40;;;3.17;;
22219;SDS011;11279;48.364;10.904;2023-04-03T01:40:44;6.37;;;3.20;;
22219;SDS011;11279;48.364;10.904;2023-04-03T01:41:45;6.47;;;3.00;;
22219;SDS011;11279;48.364;10.904;2023-04-03T01:42:45;4.63;;;2.93;;
22219;SDS011;11279;48.364;10.904;2023-04-03T01:43:46;4.43;;;3.00;;
22219;SDS011;11279;48.364;10.904;2023-04-03T01:44:47;4.85;;;3.15;;
22219;SDS011;11279;48.364;10.904;2023-04-03T01:45:47;5.10;;;3.07;;
22219;SDS011;11279;48.364;10.904;2023-04-03T01:46:49;4.85;;;3.05;;
22219;SDS011;11279;48.364;10.904;2023-04-03T01:47:50;5.53;;;2.87;;
22219;SDS011;11279;48.364;10.904;2023-04-03T01:48:51;7.73;;;3.10;;
22219;SDS011;11279;48.364;10.904;2023-04-03T01:49:51;6.33;;;3.10;;
22219;SDS011;11279;48.364;10.904;2023-04-03T01:50:51;4.37;;;2.90;;
22219;SDS011;11279;48.364;10.904;2023-04-03T01:51:52;3.53;;;2.93;;
22219;SDS011;11279;48.364;10.904;2023-04-03T01:52:52;4.63;;;3.03;;
22219;SDS011;11279;48.364;10.904;2023-04-03T01:53:53;5.27;;;2.90;;
22219;SDS011;11279;48.364;10.904;2023-04-03T01:54:53;3.77;;;2.60;;
22219;SDS011;11279;48.364;10.904;2023-04-03T01:55:53;6.53;;;3.03;;
22219;SDS011;11279;48.364;10.904;2023-04-03T01:56:54;3.67;;;3.03;;
22219;SDS011;11279;48.364;10.904;2023-04-03T01:57:54;5.03;;;3.40;;
22219;SDS011;11279;48.364;10.904;2023-04-03T01:58:55;5.30;;;3.17;;
22219;SDS011;11279;48.364;10.904;2023-04-03T01:59:55;3.97;;;2.97;;
22219;SDS011;11279;48.364;10.904;2023-04-03T02:00:56;3.83;;;2.47;;
22219;SDS011;11279;48.364;10.904;2023-04-03T02:01:56;5.03;;;2.67;;
22219;SDS011;11279;48.364;10.904;2023-04-03T02:02:56;3.93;;;2.83;;
22219;SDS011;11279;48.364;10.904;2023-04-03T02:03:57;5.23;;;2.90;;
22219;SDS011;11279;48.364;10.904;2023-04-03T02:04:57;5.73;;;3.07;;
22219;SDS011;11279;48.364;10.904;2023-04-03T02:05:58;5.13;;;3.10;;
22219;SDS011;11279;48.364;10.904;2023-04-03T02:06:59;4.80;;;2.80;;
22219;SDS011;11279;48.364;10.904;2023-04-03T02:07:59;6.27;;;3.27;;
22219;SDS011;11279;48.364;10.904;2023-04-03T02:09:00;4.50;;;3.10;;
22219;SDS011;11279;48.364;10.904;2023-04-03T02:10:00;4.53;;;2.83;;
22219;SDS011;11279;48.364;10.904;2023-04-03T02:11:01;4.97;;;2.90;;
22219;SDS011;11279;48.364;10.904;2023-04-03T02:12:01;4.43;;;2.87;;
22219;SDS011;11279;48.364;10.904;2023-04-03T02:13:02;7.23;;;3.30;;
22219;SDS011;11279;48.364;10.904;2023-04-03T02:14:02;5.90;;;2.90;;
22219;SDS011;11279;48.364;10.904;2023-04-03T02:15:03;5.33;;;3.00;;
22219;SDS011;11279;48.364;10.904;2023-04-03T02:16:07;5.03;;;2.93;;
22219;SDS011;11279;48.364;10.904;2023-04-03T02:17:12;5.35;;;2.85;;
22219;SDS011;11279;48.364;10.904;2023-04-03T02:18:13;3.30;;;2.50;;
22219;SDS011;11279;48.364;10.904;2023-04-03T02:19:14;5.75;;;2.85;;
22219;SDS011;11279;48.364;10.904;2023-04-03T02:20:14;5.63;;;3.07;;
22219;SDS011;11279;48.364;10.904;2023-04-03T02:21:15;4.87;;;2.97;;
22219;SDS011;11279;48.364;10.904;2023-04-03T02:22:15;5.57;;;2.97;;
22219;SDS011;11279;48.364;10.904;2023-04-03T02:23:16;4.70;;;3.13;;
22219;SDS011;11279;48.364;10.904;2023-04-03T02:24:16;5.87;;;3.03;;
22219;SDS011;11279;48.364;10.904;2023-04-03T02:25:16;8.17;;;3.40;;
22219;SDS011;11279;48.364;10.904;2023-04-03T02:26:17;5.50;;;3.50;;
22219;SDS011;11279;48.364;10.904;2023-04-03T02:27:18;6.93;;;3.37;;
22219;SDS011;11279;48.364;10.904;2023-04-03T02:28:18;4.17;;;2.90;;
22219;SDS011;11279;48.364;10.904;2023-04-03T02:29:19;5.30;;;2.97;;
22219;SDS011;11279;48.364;10.904;2023-04-03T02:30:19;5.43;;;2.97;;
22219;SDS011;11279;48.364;10.904;2023-04-03T02:31:20;4.37;;;3.10;;
22219;SDS011;11279;48.364;10.904;2023-04-03T02:32:20;4.67;;;2.53;;
22219;SDS011;11279;48.364;10.904;2023-04-03T02:33:21;6.13;;;3.13;;
22219;SDS011;11279;48.364;10.904;2023-04-03T02:34:21;5.53;;;3.40;;
22219;SDS011;11279;48.364;10.904;2023-04-03T02:35:22;5.43;;;3.50;;
22219;SDS011;11279;48.364;10.904;2023-04-03T02:36:22;6.70;;;3.43;;
22219;SDS011;11279;48.364;10.904;2023-04-03T02:37:23;6.80;;;3.33;;
22219;SDS011;11279;48.364;10.904;2023-04-03T02:38:24;4.67;;;3.30;;
22219;SDS011;11279;48.364;10.904;2023-04-03T02:39:25;4.47;;;3.05;;
22219;SDS011;11279;48.364;10.904;2023-04-03T02:40:26;5.67;;;2.63;;
22219;SDS011;11279;48.364;10.904;2023-04-03T02:41:26;5.70;;;3.17;;
22219;SDS011;11279;48.364;10.904;2023-04-03T02:42:33;4.40;;;2.97;;
22219;SDS011;11279;48.364;10.904;2023-04-03T02:43:34;4.60;;;2.77;;
22219;SDS011;11279;48.364;10.904;2023-04-03T02:44:34;4.65;;;2.50;;
22219;SDS011;11279;48.364;10.904;2023-04-03T02:45:35;5.30;;;3.10;;
22219;SDS011;11279;48.364;10.904;2023-04-03T02:46:36;6.07;;;3.13;;
22219;SDS011;11279;48.364;10.904;2023-04-03T02:47:36;3.80;;;3.00;;
22219;SDS011;11279;48.364;10.904;2023-04-03T02:48:37;4.73;;;2.87;;
22219;SDS011;11279;48.364;10.904;2023-04-03T02:49:37;4.83;;;3.13;;
22219;SDS011;11279;48.364;10.904;2023-04-03T02:50:37;6.43;;;3.50;;
22219;SDS011;11279;48.364;10.904;2023-04-03T02:51:38;4.87;;;3.03;;
22219;SDS011;11279;48.364;10.904;2023-04-03T02:52:38;5.13;;;2.90;;
22219;SDS011;11279;48.364;10.904;2023-04-03T02:53:39;8.83;;;3.03;;
22219;SDS011;11279;48.364;10.904;2023-04-03T02:54:39;5.53;;;2.80;;
22219;SDS011;11279;48.364;10.904;2023-04-03T02:55:40;7.03;;;3.50;;
22219;SDS011;11279;48.364;10.904;2023-04-03T02:56:41;4.57;;;3.30;;
22219;SDS011;11279;48.364;10.904;2023-04-03T02:57:41;7.87;;;3.20;;
22219;SDS011;11279;48.364;10.904;2023-04-03T02:58:42;4.57;;;2.80;;
22219;SDS011;11279;48.364;10.904;2023-04-03T02:59:42;7.43;;;3.40;;
22219;SDS011;11279;48.364;10.904;2023-04-03T03:00:44;4.03;;;2.75;;
22219;SDS011;11279;48.364;10.904;2023-04-03T03:01:44;5.47;;;2.90;;
22219;SDS011;11279;48.364;10.904;2023-04-03T03:02:45;4.63;;;3.07;;
22219;SDS011;11279;48.364;10.904;2023-04-03T03:03:45;6.50;;;3.17;;
22219;SDS011;11279;48.364;10.904;2023-04-03T03:04:45;4.43;;;3.20;;
22219;SDS011;11279;48.364;10.904;2023-04-03T03:05:46;4.83;;;2.97;;
22219;SDS011;11279;48.364;10.904;2023-04-03T03:06:48;5.18;;;2.67;;
22219;SDS011;11279;48.364;10.904;2023-04-03T03:07:48;5.60;;;3.17;;
22219;SDS011;11279;48.364;10.904;2023-04-03T03:08:48;5.30;;;3.53;;
22219;SDS011;11279;48.364;10.904;2023-04-03T03:09:49;8.23;;;3.97;;
22219;SDS011;11279;48.364;10.904;2023-04-03T03:10:49;5.70;;;3.30;;
22219;SDS011;11279;48.364;10.904;2023-04-03T03:11:51;8.63;;;3.50;;
22219;SDS011;11279;48.364;10.904;2023-04-03T03:12:51;7.07;;;3.27;;
22219;SDS011;11279;48.364;10.904;2023-04-03T03:13:52;5.33;;;3.00;;
22219;SDS011;11279;48.364;10.904;2023-04-03T03:14:52;5.63;;;2.97;;
22219;SDS011;11279;48.364;10.904;2023-04-03T03:15:53;5.53;;;3.43;;
22219;SDS011;11279;48.364;10.904;2023-04-03T03:16:53;5.47;;;3.17;;
22219;SDS011;11279;48.364;10.904;2023-04-03T03:17:54;5.27;;;3.20;;
22219;SDS011;11279;48.364;10.904;2023-04-03T03:18:54;6.53;;;3.23;;
22219;SDS011;11279;48.364;10.904;2023-04-03T03:19:54;5.53;;;3.57;;
22219;SDS011;11279;48.364;10.904;2023-04-03T03:20:56;5.87;;;3.60;;
22219;SDS011;11279;48.364;10.904;2023-04-03T03:21:57;6.38;;;3.10;;
22219;SDS011;11279;48.364;10.904;2023-04-03T03:22:58;8.47;;;3.63;;
22219;SDS011;11279;48.364;10.904;2023-04-03T03:23:58;6.40;;;3.53;;
22219;SDS011;11279;48.364;10.904;2023-04-03T03:24:59;5.60;;;3.20;;
22219;SDS011;11279;48.364;10.904;2023-04-03T03:26:02;5.38;;;3.17;;
22219;SDS011;11279;48.364;10.904;2023-04-03T03:27:04;5.63;;;3.38;;
22219;SDS011;11279;48.364;10.904;2023-04-03T03:28:04;5.90;;;3.60;;
22219;SDS011;11279;48.364;10.904;2023-04-03T03:29:05;5.53;;;3.47;;
22219;SDS011;11279;48.364;10.904;2023-04-03T03:30:06;6.23;;;3.40;;
22219;SDS011;11279;48.364;10.904;2023-04-03T03:31:07;5.40;;;3.05;;
22219;SDS011;11279;48.364;10.904;2023-04-03T03:32:08;7.20;;;3.50;;
22219;SDS011;11279;48.364;10.904;2023-04-03T03:33:08;6.93;;;3.17;;
22219;SDS011;11279;48.364;10.904;2023-04-03T03:34:09;5.93;;;3.00;;
22219;SDS011;11279;48.364;10.904;2023-04-03T03:35:10;6.70;;;3.40;;
22219;SDS011;11279;48.364;10.904;2023-04-03T03:36:10;5.70;;;3.20;;
22219;SDS011;11279;48.364;10.904;2023-04-03T03:37:11;5.57;;;3.47;;
22219;SDS011;11279;48.364;10.904;2023-04-03T03:38:11;8.13;;;3.67;;
22219;SDS011;11279;48.364;10.904;2023-04-03T03:39:12;5.27;;;3.30;;
22219;SDS011;11279;48.364;10.904;2023-04-03T03:40:12;3.80;;;2.80;;
22219;SDS011;11279;48.364;10.904;2023-04-03T03:41:13;6.23;;;3.23;;
22219;SDS011;11279;48.364;10.904;2023-04-03T03:42:13;6.90;;;3.97;;
22219;SDS011;11279;48.364;10.904;2023-04-03T03:43:14;6.40;;;3.70;;
22219;SDS011;11279;48.364;10.904;2023-04-03T03:44:15;5.18;;;2.83;;
22219;SDS011;11279;48.364;10.904;2023-04-03T03:45:15;6.13;;;3.57;;
22219;SDS011;11279;48.364;10.904;2023-04-03T03:46:16;6.47;;;3.30;;
22219;SDS011;11279;48.364;10.904;2023-04-03T03:47:16;6.20;;;3.70;;
22219;SDS011;11279;48.364;10.904;2023-04-03T03:48:17;7.70;;;3.93;;
22219;SDS011;11279;48.364;10.904;2023-04-03T03:49:17;5.90;;;3.40;;
22219;SDS011;11279;48.364;10.904;2023-04-03T03:50:17;4.97;;;3.30;;
22219;SDS011;11279;48.364;10.904;2023-04-03T03:51:18;6.67;;;3.63;;
22219;SDS011;11279;48.364;10.904;2023-04-03T03:52:18;5.63;;;3.20;;
22219;SDS011;11279;48.364;10.904;2023-04-03T03:53:19;6.23;;;3.50;;
22219;SDS011;11279;48.364;10.904;2023-04-03T03:54:19;7.00;;;3.60;;
22219;SDS011;11279;48.364;10.904;2023-04-03T03:55:20;6.13;;;3.17;;
22219;SDS011;11279;48.364;10.904;2023-04-03T03:56:20;6.90;;;4.27;;
22219;SDS011;11279;48.364;10.904;2023-04-03T03:57:21;4.60;;;3.27;;
22219;SDS011;11279;48.364;10.904;2023-04-03T03:58:21;5.63;;;3.50;;
22219;SDS011;11279;48.364;10.904;2023-04-03T03:59:22;7.40;;;3.63;;
22219;SDS011;11279;48.364;10.904;2023-04-03T04:00:22;5.07;;;3.50;;
22219;SDS011;11279;48.364;10.904;2023-04-03T04:01:23;8.63;;;3.10;;
22219;SDS011;11279;48.364;10.904;2023-04-03T04:02:24;4.97;;;3.20;;
22219;SDS011;11279;48.364;10.904;2023-04-03T04:03:24;7.53;;;3.87;;
22219;SDS011;11279;48.364;10.904;2023-04-03T04:04:25;4.57;;;3.57;;
22219;SDS011;11279;48.364;10.904;2023-04-03T04:05:25;6.70;;;3.37;;
22219;SDS011;11279;48.364;10.904;2023-04-03T04:06:26;6.73;;;3.37;;
22219;SDS011;11279;48.364;10.904;2023-04-03T04:07:26;7.63;;;3.70;;
22219;SDS011;11279;48.364;10.904;2023-04-03T04:08:28;6.90;;;3.83;;
22219;SDS011;11279;48.364;10.904;2023-04-03T04:09:28;5.43;;;3.53;;
22219;SDS011;11279;48.364;10.904;2023-04-03T04:10:29;8.20;;;4.10;;
22219;SDS011;11279;48.364;10.904;2023-04-03T04:11:29;6.63;;;3.80;;
22219;SDS011;11279;48.364;10.904;2023-04-03T04:12:30;6.87;;;3.80;;
22219;SDS011;11279;48.364;10.904;2023-04-03T04:13:30;6.60;;;3.63;;
22219;SDS011;11279;48.364;10.904;2023-04-03T04:14:31;8.83;;;4.13;;
22219;SDS011;11279;48.364;10.904;2023-04-03T04:15:32;7.03;;;3.87;;
22219;SDS011;11279;48.364;10.904;2023-04-03T04:16:32;5.87;;;3.60;;
22219;SDS011;11279;48.364;10.904;2023-04-03T04:17:32;8.63;;;4.00;;
22219;SDS011;11279;48.364;10.904;2023-04-03T04:18:35;5.93;;;3.90;;
22219;SDS011;11279;48.364;10.904;2023-04-03T04:19:35;7.87;;;4.23;;
22219;SDS011;11279;48.364;10.904;2023-04-03T04:20:35;6.53;;;3.40;;
22219;SDS011;11279;48.364;10.904;2023-04-03T04:21:36;7.50;;;3.53;;
22219;SDS011;11279;48.364;10.904;2023-04-03T04:22:36;5.30;;;3.67;;
22219;SDS011;11279;48.364;10.904;2023-04-03T04:23:37;7.25;;;3.65;;
22219;SDS011;11279;48.364;10.904;2023-04-03T04:24:38;6.60;;;3.90;;
22219;SDS011;11279;48.364;10.904;2023-04-03T04:25:38;6.60;;;3.83;;
22219;SDS011;11279;48.364;10.904;2023-04-03T04:26:39;7.57;;;4.10;;
22219;SDS011;11279;48.364;10.904;2023-04-03T04:27:39;7.37;;;3.83;;
22219;SDS011;11279;48.364;10.904;2023-04-03T04:28:40;7.23;;;3.87;;
22219;SDS011;11279;48.364;10.904;2023-04-03T04:29:40;8.13;;;3.97;;
22219;SDS011;11279;48.364;10.904;2023-04-03T04:30:40;6.80;;;3.83;;
22219;SDS011;11279;48.364;10.904;2023-04-03T04:31:41;6.73;;;3.93;;
22219;SDS011;11279;48.364;10.904;2023-04-03T04:32:42;5.07;;;3.73;;
22219;SDS011;11279;48.364;10.904;2023-04-03T04:33:42;11.33;;;4.00;;
22219;SDS011;11279;48.364;10.904;2023-04-03T04:34:42;5.23;;;3.77;;
22219;SDS011;11279;48.364;10.904;2023-04-03T04:35:43;8.07;;;3.80;;
22219;SDS011;11279;48.364;10.904;2023-04-03T04:36:43;7.17;;;4.40;;
22219;SDS011;11279;48.364;10.904;2023-04-03T04:37:44;7.77;;;4.10;;
22219;SDS011;11279;48.364;10.904;2023-04-03T04:38:45;6.83;;;3.60;;
22219;SDS011;11279;48.364;10.904;2023-04-03T04:39:45;7.07;;;4.07;;
22219;SDS011;11279;48.364;10.904;2023-04-03T04:40:46;7.97;;;4.07;;
22219;SDS011;11279;48.364;10.904;2023-04-03T04:41:47;7.63;;;4.05;;
22219;SDS011;11279;48.364;10.904;2023-04-03T04:42:48;5.30;;;3.70;;
22219;SDS011;11279;48.364;10.904;2023-04-03T04:43:48;6.33;;;3.87;;
22219;SDS011;11279;48.364;10.904;2023-04-03T04:44:49;6.97;;;3.78;;
22219;SDS011;11279;48.364;10.904;2023-04-03T04:45:59;7.83;;;3.87;;
22219;SDS011;11279;48.364;10.904;2023-04-03T04:47:09;7.13;;;4.10;;
22219;SDS011;11279;48.364;10.904;2023-04-03T04:48:09;5.27;;;3.87;;
22219;SDS011;11279;48.364;10.904;2023-04-03T04:49:10;6.60;;;3.90;;
22219;SDS011;11279;48.364;10.904;2023-04-03T04:50:10;6.70;;;3.90;;
22219;SDS011;11279;48.364;10.904;2023-04-03T04:51:11;6.93;;;3.90;;
22219;SDS011;11279;48.364;10.904;2023-04-03T04:52:12;7.67;;;3.60;;
22219;SDS011;11279;48.364;10.904;2023-04-03T04:53:12;5.97;;;3.97;;
22219;SDS011;11279;48.364;10.904;2023-04-03T04:54:12;7.03;;;4.23;;
22219;SDS011;11279;48.364;10.904;2023-04-03T04:55:13;7.60;;;4.10;;
22219;SDS011;11279;48.364;10.904;2023-04-03T04:56:13;5.80;;;3.60;;
22219;SDS011;11279;48.364;10.904;2023-04-03T04:57:14;5.10;;;3.67;;
22219;SDS011;11279;48.364;10.904;2023-04-03T04:58:15;6.32;;;3.67;;
22219;SDS011;11279;48.364;10.904;2023-04-03T04:59:16;6.53;;;3.53;;
22219;SDS011;11279;48.364;10.904;2023-04-03T05:00:16;7.23;;;3.80;;
22219;SDS011;11279;48.364;10.904;2023-04-03T05:01:17;7.90;;;4.40;;
22219;SDS011;11279;48.364;10.904;2023-04-03T05:02:21;5.53;;;3.55;;
22219;SDS011;11279;48.364;10.904;2023-04-03T05:03:21;8.40;;;4.33;;
22219;SDS011;11279;48.364;10.904;2023-04-03T05:04:22;7.27;;;3.90;;
22219;SDS011;11279;48.364;10.904;2023-04-03T05:05:22;6.90;;;3.97;;
22219;SDS011;11279;48.364;10.904;2023-04-03T05:06:23;7.30;;;3.70;;
22219;SDS011;11279;48.364;10.904;2023-04-03T05:07:24;8.10;;;4.40;;
22219;SDS011;11279;48.364;10.904;2023-04-03T05:08:24;10.47;;;4.43;;
22219;SDS011;11279;48.364;10.904;2023-04-03T05:09:25;6.87;;;4.20;;
22219;SDS011;11279;48.364;10.904;2023-04-03T05:10:25;7.00;;;4.07;;
22219;SDS011;11279;48.364;10.904;2023-04-03T05:11:26;7.30;;;4.23;;
22219;SDS011;11279;48.364;10.904;2023-04-03T05:12:26;5.37;;;3.90;;
22219;SDS011;11279;48.364;10.904;2023-04-03T05:13:27;7.10;;;3.73;;
22219;SDS011;11279;48.364;10.904;2023-04-03T05:14:27;6.90;;;4.00;;
22219;SDS011;11279;48.364;10.904;2023-04-03T05:15:28;6.67;;;4.07;;
22219;SDS011;11279;48.364;10.904;2023-04-03T05:16:28;10.17;;;4.60;;
22219;SDS011;11279;48.364;10.904;2023-04-03T05:17:29;5.87;;;3.83;;
22219;SDS011;11279;48.364;10.904;2023-04-03T05:18:29;6.07;;;3.53;;
22219;SDS011;11279;48.364;10.904;2023-04-03T05:19:29;7.80;;;4.20;;
22219;SDS011;11279;48.364;10.904;2023-04-03T05:20:30;7.10;;;4.13;;
22219;SDS011;11279;48.364;10.904;2023-04-03T05:21:31;7.88;;;4.07;;
22219;SDS011;11279;48.364;10.904;2023-04-03T05:22:32;6.50;;;4.00;;
22219;SDS011;11279;48.364;10.904;2023-04-03T05:23:32;8.27;;;4.50;;
22219;SDS011;11279;48.364;10.904;2023-04-03T05:24:33;7.20;;;4.50;;
22219;SDS011;11279;48.364;10.904;2023-04-03T05:25:33;8.60;;;4.30;;
22219;SDS011;11279;48.364;10.904;2023-04-03T05:26:34;9.63;;;4.17;;
22219;SDS011;11279;48.364;10.904;2023-04-03T05:27:34;5.90;;;4.10;;
22219;SDS011;11279;48.364;10.904;2023-04-03T05:28:35;7.93;;;4.40;;
22219;SDS011;11279;48.364;10.904;2023-04-03T05:29:36;7.70;;;4.03;;
22219;SDS011;11279;48.364;10.904;2023-04-03T05:30:37;7.53;;;4.00;;
22219;SDS011;11279;48.364;10.904;2023-04-03T05:31:37;8.83;;;4.00;;
22219;SDS011;11279;48.364;10.904;2023-04-03T05:32:38;6.27;;;3.97;;
22219;SDS011;11279;48.364;10.904;2023-04-03T05:33:38;8.57;;;4.27;;
22219;SDS011;11279;48.364;10.904;2023-04-03T05:34:38;5.73;;;3.77;;
22219;SDS011;11279;48.364;10.904;2023-04-03T05:35:39;8.27;;;4.10;;
22219;SDS011;11279;48.364;10.904;2023-04-03T05:36:41;7.13;;;4.15;;
22219;SDS011;11279;48.364;10.904;2023-04-03T05:37:42;6.57;;;3.90;;
22219;SDS011;11279;48.364;10.904;2023-04-03T05:38:42;5.80;;;4.00;;
22219;SDS011;11279;48.364;10.904;2023-04-03T05:39:43;8.73;;;4.07;;
22219;SDS011;11279;48.364;10.904;2023-04-03T05:40:43;9.87;;;4.03;;
22219;SDS011;11279;48.364;10.904;2023-04-03T05:41:44;7.23;;;4.13;;
22219;SDS011;11279;48.364;10.904;2023-04-03T05:42:44;10.60;;;4.40;;
22219;SDS011;11279;48.364;10.904;2023-04-03T05:43:45;7.03;;;4.40;;
22219;SDS011;11279;48.364;10.904;2023-04-03T05:44:45;9.97;;;4.17;;
22219;SDS011;11279;48.364;10.904;2023-04-03T05:45:47;6.85;;;4.20;;
22219;SDS011;11279;48.364;10.904;2023-04-03T05:46:48;8.90;;;4.70;;
22219;SDS011;11279;48.364;10.904;2023-04-03T05:47:48;8.30;;;4.13;;
22219;SDS011;11279;48.364;10.904;2023-04-03T05:48:49;7.60;;;4.13;;
22219;SDS011;11279;48.364;10.904;2023-04-03T05:49:49;7.50;;;4.23;;
22219;SDS011;11279;48.364;10.904;2023-04-03T05:50:50;9.93;;;4.53;;
22219;SDS011;11279;48.364;10.904;2023-04-03T05:51:50;8.57;;;4.70;;
22219;SDS011;11279;48.364;10.904;2023-04-03T05:52:52;7.53;;;4.63;;
22219;SDS011;11279;48.364;10.904;2023-04-03T05:54:03;6.90;;;4.07;;
22219;SDS011;11279;48.364;10.904;2023-04-03T05:55:08;7.75;;;4.57;;
22219;SDS011;11279;48.364;10.904;2023-04-03T05:56:08;13.50;;;5.20;;
22219;SDS011;11279;48.364;10.904;2023-04-03T05:57:09;8.93;;;4.67;;
22219;SDS011;11279;48.364;10.904;2023-04-03T05:58:11;8.60;;;4.28;;
22219;SDS011;11279;48.364;10.904;2023-04-03T05:59:11;6.77;;;4.50;;
22219;SDS011;11279;48.364;10.904;2023-04-03T06:00:14;9.57;;;4.30;;
22219;SDS011;11279;48.364;10.904;2023-04-03T06:01:15;6.90;;;4.15;;
22219;SDS011;11279;48.364;10.904;2023-04-03T06:02:17;6.63;;;4.33;;
22219;SDS011;11279;48.364;10.904;2023-04-03T06:03:19;7.28;;;3.90;;
22219;SDS011;11279;48.364;10.904;2023-04-03T06:04:19;6.17;;;4.07;;
22219;SDS011;11279;48.364;10.904;2023-04-03T06:05:21;8.88;;;4.88;;
22219;SDS011;11279;48.364;10.904;2023-04-03T06:06:22;10.50;;;3.90;;
22219;SDS011;11279;48.364;10.904;2023-04-03T06:07:23;10.73;;;4.73;;